Time;durP1;ratioP1;P1;durP2;ratioP2;P2;SDS_P1;SDS_P2;PMS_P1;PMS_P2;Temp;Humidity;BMP_temperature;BMP_pressure;BME280_temperature;BME280_humidity;BME280_pressure;Samples;Min_cycle;Max_cycle;Signal;HPM_P1;HPM_P2
2023/12/23 00:02:26;;;;;;;10.52;4.25;;;;;;;7.51;70.79;97294.13;4909714;29;20125;-65
2023/12/23 00:09:15;;;;;;;7.97;3.85;;;;;;;7.78;72.19;97356.94;4944755;28;20718;-61
2023/12/23 00:25:55;;;;;;;8.88;4.30;;;;;;;7.93;70.91;97369.28;4875876;29;20077;-63
2023/12/23 01:36:32;;;;;;;3.97;1.48;;;;;;;9.93;67.61;97405.00;5085946;28;20058;-64
2023/12/23 01:38:58;;;;;;;5.80;1.60;;;;;;;9.84;65.96;97404.25;5084394;28;20036;-66
2023/12/23 01:42:14;;;;;;;5.32;1.80;;;;;;;9.86;64.27;97420.47;5067101;28;20034;-66
2023/12/23 01:44:43;;;;;;;4.97;2.03;;;;;;;9.57;65.41;97421.06;5081051;28;20039;-63
2023/12/23 01:47:14;;;;;;;4.90;2.00;;;;;;;9.21;65.54;97370.41;5081759;28;20070;-64
2023/12/23 01:49:40;;;;;;;4.88;1.90;;;;;;;9.13;65.49;97388.59;5083093;28;20040;-64
2023/12/23 01:52:06;;;;;;;5.65;2.03;;;;;;;9.18;65.52;97427.81;5070359;28;20016;-63
2023/12/23 01:54:31;;;;;;;5.18;2.15;;;;;;;9.03;65.66;97419.91;5069438;28;20382;-65
2023/12/23 01:57:00;;;;;;;4.90;1.98;;;;;;;9.06;66.47;97430.91;5068011;28;20142;-65
2023/12/23 01:59:26;;;;;;;4.63;1.77;;;;;;;8.95;67.19;97432.84;5072577;28;20089;-65
2023/12/23 02:01:54;;;;;;;5.55;2.33;;;;;;;8.65;67.90;97439.47;5075271;28;20019;-65
2023/12/23 02:04:20;;;;;;;6.63;2.55;;;;;;;8.53;67.42;97441.59;5086359;28;20089;-63
2023/12/23 02:06:48;;;;;;;5.95;2.50;;;;;;;8.28;67.55;97405.25;5077439;28;20028;-64
2023/12/23 02:09:15;;;;;;;5.38;2.30;;;;;;;8.29;69.07;97455.28;5086965;28;20115;-66
2023/12/23 02:11:49;;;;;;;5.15;2.10;;;;;;;8.13;70.00;97453.47;5076355;28;20031;-63
2023/12/23 02:14:40;;;;;;;5.40;2.25;;;;;;;8.21;68.91;97461.25;5086468;28;20024;-63
2023/12/23 02:17:05;;;;;;;5.63;2.22;;;;;;;8.22;68.99;97449.13;5086854;27;20124;-63
2023/12/23 02:19:30;;;;;;;5.47;2.20;;;;;;;8.13;70.01;97456.03;5086487;28;20108;-64
2023/12/23 02:21:58;;;;;;;5.97;2.30;;;;;;;7.69;70.16;97456.19;5094251;28;20139;-64
2023/12/23 02:24:23;;;;;;;5.38;2.17;;;;;;;7.73;70.61;97436.81;5074724;28;20019;-64
2023/12/23 02:26:53;;;;;;;5.22;2.10;;;;;;;7.77;71.22;97466.56;5071513;28;20410;-63
2023/12/23 02:29:20;;;;;;;6.00;2.08;;;;;;;7.69;70.64;97477.72;5072520;28;20034;-63
2023/12/23 02:31:47;;;;;;;4.53;1.90;;;;;;;7.62;70.48;97461.16;5083619;28;20107;-63
2023/12/23 02:34:12;;;;;;;6.18;2.10;;;;;;;7.73;70.66;97467.84;5091664;28;20398;-64
2023/12/23 02:36:41;;;;;;;5.35;1.92;;;;;;;7.68;71.74;97455.41;5084154;28;20037;-63
2023/12/23 02:39:07;;;;;;;4.68;2.05;;;;;;;7.72;71.08;97450.72;5079182;28;20030;-65
2023/12/23 02:41:32;;;;;;;4.85;2.13;;;;;;;7.72;70.48;97460.25;5066980;28;20024;-64
2023/12/23 02:43:58;;;;;;;8.23;2.65;;;;;;;7.49;71.17;97460.78;5069503;28;20031;-63
2023/12/23 02:46:23;;;;;;;5.78;2.10;;;;;;;7.81;71.44;97461.91;5074496;28;20031;-65
2023/12/23 02:48:49;;;;;;;5.80;2.30;;;;;;;8.02;71.35;97459.72;5086658;28;20028;-63
2023/12/23 02:51:14;;;;;;;6.20;2.30;;;;;;;8.04;71.20;97464.75;5090230;28;20027;-63
2023/12/23 02:53:41;;;;;;;5.72;2.03;;;;;;;7.96;70.90;97468.13;5068000;28;20043;-63
2023/12/23 02:56:07;;;;;;;5.60;1.83;;;;;;;7.54;70.21;97416.34;5084946;28;20032;-63
2023/12/23 02:58:32;;;;;;;5.18;2.00;;;;;;;7.64;71.88;97494.66;5071309;28;20250;-64
2023/12/23 03:01:00;;;;;;;5.05;2.20;;;;;;;7.68;72.85;97477.84;5096598;28;20809;-63
2023/12/23 03:03:25;;;;;;;4.85;1.85;;;;;;;7.77;73.20;97476.94;5086930;28;20051;-65
2023/12/23 03:05:53;;;;;;;4.95;1.80;;;;;;;7.86;73.78;97475.19;5072011;28;20080;-65
2023/12/23 03:08:21;;;;;;;5.18;1.77;;;;;;;7.64;72.88;97487.69;5090004;28;20020;-64
2023/12/23 03:10:48;;;;;;;5.68;1.80;;;;;;;7.38;72.72;97450.72;5086482;28;20039;-63
2023/12/23 03:13:13;;;;;;;5.55;1.80;;;;;;;7.93;71.79;97489.13;5070822;28;20020;-63
2023/12/23 03:15:39;;;;;;;4.82;1.60;;;;;;;8.23;71.88;97493.00;5085584;28;21035;-64
2023/12/23 03:18:04;;;;;;;4.47;1.67;;;;;;;8.21;72.48;97430.19;5095653;28;20038;-64
2023/12/23 03:20:32;;;;;;;3.85;1.40;;;;;;;8.59;72.89;97484.19;5046939;28;20400;-64
2023/12/23 03:23:00;;;;;;;5.97;2.03;;;;;;;8.53;70.69;97500.38;5089386;28;20040;-64
2023/12/23 03:25:25;;;;;;;4.95;2.00;;;;;;;8.27;70.90;97489.09;5083263;28;20107;-65
2023/12/23 03:27:51;;;;;;;5.00;1.80;;;;;;;8.31;73.05;97499.97;5082605;28;20415;-64
2023/12/23 03:30:16;;;;;;;5.03;2.10;;;;;;;8.31;74.19;97502.56;5079758;28;20023;-65
2023/12/23 03:32:44;;;;;;;4.38;1.83;;;;;;;8.37;74.06;97504.50;5076505;28;20028;-64
2023/12/23 03:35:09;;;;;;;5.10;1.67;;;;;;;8.14;73.50;97491.34;5092327;28;20031;-64
2023/12/23 03:37:35;;;;;;;3.88;1.50;;;;;;;7.87;74.48;97494.94;5076254;28;20031;-64
2023/12/23 03:40:00;;;;;;;6.50;1.80;;;;;;;7.87;72.14;97511.28;5092945;28;20239;-65
2023/12/23 03:42:26;;;;;;;4.65;1.80;;;;;;;7.92;73.01;97495.28;5090800;28;20036;-65
2023/12/23 03:44:51;;;;;;;4.72;1.77;;;;;;;7.85;72.50;97494.28;5073331;28;20131;-64
2023/12/23 03:47:19;;;;;;;4.45;1.80;;;;;;;7.89;72.74;97501.59;5093044;27;20629;-65
2023/12/23 03:49:44;;;;;;;6.00;2.05;;;;;;;7.94;71.67;97506.31;5085465;28;20732;-65
2023/12/23 03:52:12;;;;;;;4.22;1.60;;;;;;;7.99;72.04;97508.41;5066466;28;20043;-64
2023/12/23 03:54:37;;;;;;;5.03;1.80;;;;;;;7.87;71.98;97497.53;5072313;28;20106;-64
2023/12/23 03:57:05;;;;;;;4.50;1.80;;;;;;;7.78;72.35;97494.09;5092194;28;21198;-65
2023/12/23 03:59:31;;;;;;;4.65;2.00;;;;;;;7.55;72.23;97514.50;5091035;28;20020;-65
2023/12/23 04:01:56;;;;;;;5.05;1.80;;;;;;;7.57;71.51;97511.75;5070998;28;20125;-64
2023/12/23 04:04:22;;;;;;;5.88;1.90;;;;;;;7.49;72.41;97497.81;5094304;28;20583;-64
2023/12/23 04:06:49;;;;;;;4.55;1.50;;;;;;;7.53;72.43;97507.84;5091289;28;20024;-64
2023/12/23 04:09:17;;;;;;;5.50;1.92;;;;;;;7.51;71.96;97506.22;5094820;28;20131;-64
2023/12/23 04:11:45;;;;;;;4.78;1.65;;;;;;;7.35;72.51;97502.72;5073078;28;20415;-62
2023/12/23 04:14:10;;;;;;;4.40;1.80;;;;;;;7.24;72.05;97506.38;5073790;28;20119;-63
2023/12/23 04:16:39;;;;;;;4.50;1.70;;;;;;;7.41;72.09;97502.94;5069975;28;20030;-63
2023/12/23 04:19:06;;;;;;;4.85;1.55;;;;;;;7.39;71.74;97527.31;5092239;28;20038;-65
2023/12/23 04:21:35;;;;;;;4.75;1.42;;;;;;;7.23;72.15;97482.28;5083159;28;20063;-63
2023/12/23 04:24:02;;;;;;;5.07;1.63;;;;;;;7.51;71.77;97523.53;5092561;28;20145;-65
2023/12/23 04:26:29;;;;;;;5.32;1.60;;;;;;;7.73;70.75;97529.97;5081486;28;20031;-64
2023/12/23 04:28:54;;;;;;;4.18;1.58;;;;;;;7.74;71.12;97515.25;5091605;28;20777;-64
2023/12/23 04:31:19;;;;;;;5.07;1.70;;;;;;;7.53;71.34;97528.53;5067655;28;20118;-64
2023/12/23 04:33:45;;;;;;;4.50;1.40;;;;;;;7.39;71.61;97528.16;5090234;28;20027;-64
2023/12/23 04:36:11;;;;;;;4.60;1.70;;;;;;;7.39;71.33;97535.91;5076075;28;20522;-64
2023/12/23 04:38:36;;;;;;;4.55;1.58;;;;;;;7.23;72.12;97494.41;5071165;28;20032;-65
2023/12/23 04:41:05;;;;;;;4.93;1.40;;;;;;;7.38;71.50;97523.91;5087405;28;20088;-65
2023/12/23 04:43:30;;;;;;;4.93;1.55;;;;;;;7.19;71.41;97509.41;5065820;28;20377;-64
2023/12/23 04:45:56;;;;;;;5.53;1.70;;;;;;;7.34;71.88;97527.78;5072005;28;20479;-64
2023/12/23 04:48:21;;;;;;;3.83;1.30;;;;;;;7.42;71.03;97521.84;5073150;28;20103;-63
2023/12/23 04:50:47;;;;;;;5.55;1.35;;;;;;;7.04;71.30;97485.03;5089300;28;20040;-63
2023/12/23 04:53:12;;;;;;;5.43;1.58;;;;;;;6.99;71.50;97482.09;5069918;28;20402;-64
2023/12/23 04:55:43;;;;;;;4.53;1.70;;;;;;;7.33;71.39;97533.91;5093477;28;20036;-64
2023/12/23 04:58:08;;;;;;;4.20;1.42;;;;;;;7.37;71.41;97545.56;5073619;28;20518;-65
2023/12/23 05:00:33;;;;;;;3.90;1.42;;;;;;;7.09;72.11;97531.94;5092152;28;20437;-65
2023/12/23 05:02:59;;;;;;;4.75;1.60;;;;;;;7.18;72.20;97548.34;5073176;28;20119;-65
2023/12/23 05:05:27;;;;;;;4.20;1.35;;;;;;;6.83;72.16;97500.88;5095907;28;20724;-65
2023/12/23 05:07:52;;;;;;;3.88;1.40;;;;;;;6.99;72.07;97550.13;5087057;28;20016;-65
2023/12/23 05:10:20;;;;;;;4.88;1.33;;;;;;;7.05;72.57;97531.44;5095496;28;20092;-65
2023/12/23 05:12:45;;;;;;;4.45;1.10;;;;;;;7.00;72.17;97546.56;5092892;28;20130;-64
2023/12/23 05:15:13;;;;;;;5.10;1.73;;;;;;;6.90;71.76;97551.00;5078431;28;20031;-65
2023/12/23 05:17:41;;;;;;;5.35;1.33;;;;;;;7.07;72.19;97542.44;5076362;28;20031;-65
2023/12/23 05:20:10;;;;;;;4.47;1.40;;;;;;;7.16;70.69;97547.69;5078300;28;20028;-65
2023/12/23 05:22:36;;;;;;;6.03;1.23;;;;;;;7.17;70.84;97544.13;5075373;28;20047;-64
2023/12/23 05:25:02;;;;;;;4.03;1.25;;;;;;;7.20;70.35;97546.41;5072989;28;20051;-65
2023/12/23 05:27:27;;;;;;;3.75;1.20;;;;;;;7.24;70.08;97558.06;5089504;28;20039;-64
2023/12/23 05:29:57;;;;;;;3.97;1.50;;;;;;;7.13;70.25;97539.22;5086007;28;20057;-65
2023/12/23 05:32:22;;;;;;;4.78;1.92;;;;;;;7.15;70.60;97562.34;5090844;28;20031;-64
2023/12/23 05:34:48;;;;;;;6.45;1.25;;;;;;;7.27;69.86;97555.19;5069503;28;20046;-63
2023/12/23 05:37:13;;;;;;;4.20;1.20;;;;;;;6.97;70.42;97509.88;5079091;28;20031;-64
2023/12/23 05:39:39;;;;;;;4.88;1.40;;;;;;;7.07;69.85;97562.31;5076482;28;20058;-65
2023/12/23 05:42:04;;;;;;;3.92;1.15;;;;;;;7.23;69.46;97552.09;5093162;28;20058;-64
2023/12/23 05:44:35;;;;;;;5.53;1.35;;;;;;;7.25;70.11;97562.28;5090762;28;20047;-65
2023/12/23 05:47:00;;;;;;;4.55;1.23;;;;;;;7.05;69.01;97561.63;5093579;28;20032;-63
2023/12/23 05:49:25;;;;;;;3.83;1.30;;;;;;;7.22;69.90;97570.34;5080458;28;20618;-65
2023/12/23 05:51:54;;;;;;;3.88;1.05;;;;;;;7.00;69.33;97515.53;5078463;28;20035;-65
2023/12/23 05:54:22;;;;;;;5.10;1.13;;;;;;;7.21;69.16;97568.69;5091450;28;20035;-65
2023/12/23 05:56:48;;;;;;;5.25;1.17;;;;;;;7.21;69.68;97577.28;5092827;28;20295;-64
2023/12/23 05:59:15;;;;;;;3.20;1.00;;;;;;;7.19;70.27;97575.81;5081128;28;20039;-64
2023/12/23 06:01:46;;;;;;;3.20;0.98;;;;;;;6.95;69.70;97528.09;5094728;28;20031;-65
2023/12/23 06:04:12;;;;;;;3.10;0.85;;;;;;;7.18;69.49;97566.44;5092644;28;20165;-63
2023/12/23 06:06:39;;;;;;;5.45;1.10;;;;;;;7.13;69.62;97567.66;5076467;28;20792;-64
2023/12/23 06:09:05;;;;;;;3.78;1.00;;;;;;;7.19;68.55;97568.03;5096117;28;20032;-63
2023/12/23 06:11:35;;;;;;;3.60;1.10;;;;;;;7.21;69.50;97572.13;5094857;28;20429;-64
2023/12/23 06:14:00;;;;;;;3.35;0.98;;;;;;;6.87;69.71;97572.78;5089661;28;20043;-63
2023/12/23 06:16:26;;;;;;;4.88;1.00;;;;;;;7.09;69.03;97581.84;5089073;28;20494;-65
2023/12/23 06:18:51;;;;;;;3.65;1.05;;;;;;;6.98;69.69;97578.69;5084707;28;20035;-64
2023/12/23 06:21:16;;;;;;;3.95;1.00;;;;;;;7.01;69.20;97576.63;5088606;28;20035;-61
2023/12/23 06:23:42;;;;;;;3.58;1.10;;;;;;;6.93;69.36;97577.34;5083768;28;20492;-65
2023/12/23 06:26:12;;;;;;;3.13;1.05;;;;;;;7.04;69.81;97585.84;5070188;28;20039;-65
2023/12/23 06:28:38;;;;;;;4.22;0.90;;;;;;;6.97;70.10;97600.31;5087148;27;20032;-64
2023/12/23 06:31:08;;;;;;;4.43;0.90;;;;;;;6.94;69.36;97596.25;5088539;28;20077;-65
2023/12/23 06:33:34;;;;;;;5.85;2.25;;;;;;;6.82;69.87;97595.66;5087841;28;20035;-65
2023/12/23 06:35:59;;;;;;;3.97;1.00;;;;;;;6.87;70.32;97595.22;5083475;28;20077;-65
2023/12/23 06:38:28;;;;;;;5.00;1.00;;;;;;;6.68;70.09;97596.97;5088035;28;20031;-64
2023/12/23 06:40:54;;;;;;;3.75;1.10;;;;;;;6.82;70.42;97603.41;5089176;28;20111;-64
2023/12/23 06:43:20;;;;;;;5.20;1.33;;;;;;;6.97;69.59;97616.63;5069304;28;20043;-63
2023/12/23 06:45:45;;;;;;;3.92;1.38;;;;;;;6.81;70.31;97619.03;5088793;28;20504;-64
2023/12/23 06:48:15;;;;;;;4.65;1.50;;;;;;;6.86;70.24;97625.44;5070947;28;20036;-64
2023/12/23 06:50:41;;;;;;;5.45;1.33;;;;;;;6.88;70.72;97627.84;5075741;28;20028;-65
2023/12/23 06:53:08;;;;;;;4.10;1.20;;;;;;;6.86;69.73;97625.44;5091912;28;20028;-65
2023/12/23 06:55:38;;;;;;;4.65;1.30;;;;;;;6.79;70.42;97633.88;5088988;28;20062;-64
2023/12/23 06:58:03;;;;;;;;;;;;;;;6.77;70.78;97638.38;5073407;28;20041;-65
2023/12/23 07:00:29;;;;;;;3.83;1.20;;;;;;;6.81;70.65;97644.88;5088063;28;19915;-65
2023/12/23 07:02:54;;;;;;;6.10;1.17;;;;;;;6.68;70.79;97640.88;5074002;28;20032;-65
2023/12/23 07:05:23;;;;;;;5.07;1.10;;;;;;;6.69;70.59;97647.66;5086121;28;20099;-63
2023/12/23 07:07:51;;;;;;;6.78;1.60;;;;;;;6.46;70.51;97598.19;5089139;28;20591;-64
2023/12/23 07:10:17;;;;;;;3.67;1.17;;;;;;;6.30;71.30;97597.97;5087617;28;20120;-65
2023/12/23 07:12:42;;;;;;;6.85;1.60;;;;;;;6.50;71.49;97616.78;5087717;28;20498;-63
2023/12/23 07:15:09;;;;;;;4.25;1.33;;;;;;;6.69;70.86;97655.41;5091008;28;20042;-65
2023/12/23 07:17:36;;;;;;;5.13;1.38;;;;;;;6.46;70.33;97620.59;5089981;28;20022;-65
2023/12/23 07:20:02;;;;;;;3.53;1.40;;;;;;;6.73;70.95;97650.78;5086672;28;20131;-64
2023/12/23 07:22:30;;;;;;;4.30;1.40;;;;;;;6.72;71.15;97662.88;5070235;28;20101;-65
2023/12/23 07:24:56;;;;;;;5.20;1.20;;;;;;;6.65;71.24;97666.19;5084174;28;20036;-64
2023/12/23 07:27:23;;;;;;;5.53;1.38;;;;;;;6.72;71.53;97667.25;5071294;28;20787;-64
2023/12/23 07:29:48;;;;;;;6.72;1.30;;;;;;;6.58;72.27;97675.47;5082098;28;20550;-63
2023/12/23 07:32:14;;;;;;;5.65;1.85;;;;;;;6.58;71.69;97678.84;5092029;28;20043;-63
2023/12/23 07:34:42;;;;;;;3.90;1.30;;;;;;;6.40;72.16;97631.50;5069337;28;20060;-64
2023/12/23 07:37:08;;;;;;;3.80;1.50;;;;;;;6.45;72.08;97624.94;5091798;28;20466;-63
2023/12/23 07:39:33;;;;;;;5.22;1.55;;;;;;;6.87;71.51;97681.31;5093782;28;20027;-64
2023/12/23 07:41:59;;;;;;;7.25;1.60;;;;;;;6.89;71.55;97687.13;5076594;28;20040;-64
2023/12/23 07:44:27;;;;;;;5.45;1.80;;;;;;;6.82;72.25;97688.66;5073663;28;20016;-63
2023/12/23 07:46:53;;;;;;;5.40;1.70;;;;;;;6.78;73.42;97689.13;5088840;28;20118;-65
2023/12/23 07:49:18;;;;;;;3.75;1.13;;;;;;;7.07;72.68;97684.59;5072402;28;20022;-64
2023/12/23 07:51:44;;;;;;;4.22;1.23;;;;;;;7.45;71.56;97687.88;5081306;28;20264;-65
2023/12/23 07:54:10;;;;;;;4.40;1.35;;;;;;;7.50;71.88;97695.19;5083101;28;20031;-65
2023/12/23 07:56:40;;;;;;;6.95;1.38;;;;;;;7.48;71.70;97695.38;5071916;28;20067;-64
2023/12/23 07:59:06;;;;;;;4.72;1.60;;;;;;;7.36;71.79;97695.72;5087719;28;20032;-63
2023/12/23 08:01:32;;;;;;;4.65;1.50;;;;;;;7.22;71.59;97697.03;5090649;28;20081;-64
2023/12/23 08:03:57;;;;;;;4.18;1.40;;;;;;;7.42;68.94;97711.47;5093794;28;20108;-64
2023/12/23 08:06:23;;;;;;;1.70;0.50;;;;;;;8.43;60.66;97720.69;5073508;28;20027;-63
2023/12/23 08:08:50;;;;;;;1.95;0.52;;;;;;;10.31;52.93;97709.97;5096622;27;20673;-63
2023/12/23 08:11:16;;;;;;;1.73;0.50;;;;;;;11.64;46.95;97696.22;5074105;28;20145;-65
2023/12/23 08:13:41;;;;;;;0.98;0.32;;;;;;;12.49;43.54;97702.22;5076196;28;20118;-65
2023/12/23 08:16:07;;;;;;;1.48;0.40;;;;;;;12.78;43.16;97705.81;5092365;28;20062;-66
2023/12/23 08:18:35;;;;;;;0.90;0.32;;;;;;;12.61;45.19;97716.44;5071983;28;20472;-65
2023/12/23 08:21:03;;;;;;;2.03;0.50;;;;;;;12.32;45.44;97683.31;5076985;28;20070;-65
2023/12/23 08:23:28;;;;;;;4.20;0.40;;;;;;;12.24;50.35;97705.03;5070313;28;20068;-64
2023/12/23 08:25:54;;;;;;;6.10;3.90;;;;;;;12.79;42.97;97708.22;5070602;28;20365;-63
2023/12/23 08:28:19;;;;;;;2.88;0.98;;;;;;;13.53;39.97;97720.38;5050029;28;20027;-66
2023/12/23 08:30:47;;;;;;;3.70;1.45;;;;;;;13.90;39.06;97715.09;5063206;28;20036;-64
2023/12/23 08:33:12;;;;;;;4.90;1.90;;;;;;;13.97;38.71;97714.16;5067408;28;20034;-65
2023/12/23 08:35:37;;;;;;;5.55;2.58;;;;;;;13.96;38.69;97722.16;5064904;28;21028;-65
2023/12/23 08:38:06;;;;;;;4.10;1.02;;;;;;;13.79;39.17;97705.94;5081525;28;20027;-65
2023/12/23 08:40:31;;;;;;;1.63;0.55;;;;;;;13.40;45.50;97707.19;5068361;28;20038;-66
2023/12/23 08:42:59;;;;;;;2.47;0.70;;;;;;;12.34;56.60;97711.78;5084374;28;20039;-66
2023/12/23 08:45:24;;;;;;;2.78;0.70;;;;;;;11.44;61.33;97677.63;5080495;28;20355;-66
2023/12/23 08:47:52;;;;;;;1.98;0.70;;;;;;;10.88;66.26;97685.59;5066530;28;20477;-64
2023/12/23 08:50:20;;;;;;;2.63;0.73;;;;;;;10.97;67.68;97704.59;5061480;28;22463;-66
2023/12/23 08:52:45;;;;;;;2.10;0.60;;;;;;;10.73;66.16;97675.09;5065353;28;20590;-65
2023/12/23 08:55:11;;;;;;;2.28;0.70;;;;;;;10.68;67.87;97666.19;5059348;28;20142;-64
2023/12/23 08:57:37;;;;;;;2.42;0.77;;;;;;;10.84;69.71;97705.13;5080584;28;20775;-64
2023/12/23 09:00:07;;;;;;;2.78;0.80;;;;;;;10.42;75.72;97706.19;5077710;27;20571;-66
2023/12/23 09:02:34;;;;;;;2.38;0.80;;;;;;;10.36;76.75;97712.06;5059869;28;20064;-65
2023/12/23 09:05:01;;;;;;;2.78;0.80;;;;;;;10.25;77.80;97718.38;5065475;28;20166;-66
2023/12/23 09:07:34;;;;;;;3.53;1.33;;;;;;;10.35;74.33;97708.66;5060420;28;20044;-65
2023/12/23 09:10:00;;;;;;;3.33;1.17;;;;;;;10.36;73.74;97709.47;5075564;28;20104;-66
2023/12/23 09:12:25;;;;;;;2.28;0.70;;;;;;;10.34;72.48;97703.63;5054171;28;20043;-63
2023/12/23 09:14:51;;;;;;;3.03;0.70;;;;;;;10.43;72.26;97707.03;5061874;28;26702;-65
2023/12/23 09:17:16;;;;;;;3.08;1.00;;;;;;;10.19;76.59;97709.47;5075063;28;20034;-63
2023/12/23 09:19:42;;;;;;;2.40;0.80;;;;;;;10.29;76.03;97724.88;5074180;28;20055;-64
2023/12/23 09:22:07;;;;;;;2.40;0.70;;;;;;;10.18;77.82;97728.63;5075785;28;20042;-65
2023/12/23 09:24:34;;;;;;;3.42;1.02;;;;;;;10.11;77.78;97722.47;5075748;28;20233;-65
2023/12/23 09:26:59;;;;;;;2.88;1.00;;;;;;;9.87;76.43;97681.72;5069878;28;20028;-65
2023/12/23 09:29:24;;;;;;;3.35;0.95;;;;;;;10.23;74.56;97715.16;5070829;28;20043;-65
2023/12/23 09:31:52;;;;;;;4.03;1.02;;;;;;;10.28;73.87;97727.66;5054294;28;20066;-64
2023/12/23 09:34:20;;;;;;;2.63;0.90;;;;;;;10.25;75.28;97712.38;5072764;28;20058;-66
2023/12/23 09:36:46;;;;;;;3.75;0.90;;;;;;;10.25;75.11;97718.38;5074627;28;20028;-65
2023/12/23 09:39:11;;;;;;;2.97;0.82;;;;;;;10.25;73.35;97712.38;5054960;28;20039;-65
2023/12/23 09:41:36;;;;;;;3.42;0.90;;;;;;;10.15;70.92;97713.38;5077890;28;20330;-66
2023/12/23 09:44:02;;;;;;;4.05;0.88;;;;;;;10.24;69.01;97719.38;5056510;28;20353;-65
2023/12/23 09:46:30;;;;;;;3.28;1.00;;;;;;;10.13;70.78;97693.72;5054150;28;21242;-64
2023/12/23 09:48:56;;;;;;;4.15;1.17;;;;;;;10.22;71.95;97712.72;5067143;28;20028;-65
2023/12/23 09:51:25;;;;;;;3.25;0.90;;;;;;;10.23;72.21;97715.16;5065373;28;20131;-64
2023/12/23 09:54:00;;;;;;;4.70;1.10;;;;;;;10.18;72.20;97707.84;5058516;28;20031;-65
2023/12/23 09:56:31;;;;;;;4.45;1.20;;;;;;;10.29;71.64;97698.88;5053083;28;20228;-65
2023/12/23 09:58:59;;;;;;;4.05;1.33;;;;;;;10.06;71.67;97680.59;5051440;28;20395;-66
2023/12/23 10:01:27;;;;;;;4.22;1.00;;;;;;;10.08;67.04;97659.66;5057464;28;20039;-65
2023/12/23 10:03:53;;;;;;;2.80;0.73;;;;;;;10.17;66.71;97656.88;5055281;28;20035;-65
2023/12/23 10:06:19;;;;;;;3.28;0.90;;;;;;;10.53;65.79;97686.84;5076255;28;20781;-65
2023/12/23 10:08:48;;;;;;;8.95;1.70;;;;;;;10.64;67.80;97689.13;5067795;28;20112;-63
2023/12/23 10:11:13;;;;;;;5.97;1.90;;;;;;;10.72;66.89;97696.06;5074841;28;20016;-63
2023/12/23 10:13:39;;;;;;;2.97;0.95;;;;;;;10.83;64.87;97690.50;5059260;28;21196;-64
2023/12/23 10:16:08;;;;;;;3.20;0.90;;;;;;;11.03;65.50;97680.50;5072910;28;20131;-65
2023/12/23 10:18:34;;;;;;;3.05;1.02;;;;;;;11.24;64.85;97684.28;5071796;28;20118;-64
2023/12/23 10:20:59;;;;;;;3.60;0.90;;;;;;;11.31;64.61;97680.00;5078123;28;20028;-65
2023/12/23 10:23:24;;;;;;;3.00;0.90;;;;;;;11.24;64.87;97671.28;5077334;28;20056;-64
2023/12/23 10:25:54;;;;;;;7.00;1.17;;;;;;;11.06;65.08;97628.13;5068010;28;20027;-65
2023/12/23 10:28:26;;;;;;;4.60;1.63;;;;;;;11.13;65.49;97667.25;5062403;28;20129;-66
2023/12/23 10:30:56;;;;;;;5.63;1.30;;;;;;;11.16;65.02;97672.13;5067068;28;20035;-64
2023/12/23 10:33:22;;;;;;;4.72;1.65;;;;;;;11.29;64.08;97667.16;5070539;28;20486;-64
2023/12/23 10:35:48;;;;;;;3.08;1.10;;;;;;;11.37;63.18;97660.28;5071337;28;20051;-65
2023/12/23 10:38:18;;;;;;;3.95;1.60;;;;;;;11.59;62.56;97659.50;5065749;28;20116;-64
2023/12/23 10:41:03;;;;;;;;;;;;;;;11.71;62.49;97662.50;5054604;28;20680;-64
2023/12/23 10:43:29;;;;;;;2.67;0.70;;;;;;;11.70;62.35;97651.28;5075437;28;20477;-64
2023/12/23 10:46:01;;;;;;;3.47;0.90;;;;;;;11.69;62.71;97652.25;5079684;27;20053;-65
2023/12/23 10:48:31;;;;;;;3.97;1.20;;;;;;;11.52;63.09;97648.97;5058943;28;20486;-65
2023/12/23 10:50:58;;;;;;;5.70;2.13;;;;;;;11.66;61.48;97642.19;5079260;28;20436;-64
2023/12/23 10:53:24;;;;;;;3.92;1.38;;;;;;;11.70;59.40;97633.03;5075681;28;20031;-65
2023/12/23 10:55:50;;;;;;;3.85;0.90;;;;;;;11.93;59.67;97640.03;5073197;28;20062;-65
2023/12/23 10:58:18;;;;;;;3.20;0.77;;;;;;;12.01;58.95;97594.84;5059939;28;20042;-65
2023/12/23 11:00:44;;;;;;;2.03;0.63;;;;;;;12.27;60.49;97636.13;5055060;28;20142;-65
2023/12/23 11:03:10;;;;;;;2.33;0.63;;;;;;;12.21;61.23;97614.19;5077695;28;20038;-63
2023/12/23 11:05:39;;;;;;;2.38;0.90;;;;;;;12.05;62.63;97607.34;5073251;28;20034;-63
2023/12/23 11:08:13;;;;;;;3.30;0.90;;;;;;;12.11;62.73;97622.25;5056192;28;20100;-64
2023/12/23 11:10:41;;;;;;;3.53;1.20;;;;;;;12.23;61.49;97616.59;5072127;28;20566;-65
2023/12/23 11:13:07;;;;;;;2.90;0.77;;;;;;;12.36;59.48;97610.75;5073812;28;20196;-64
2023/12/23 11:15:33;;;;;;;3.60;0.93;;;;;;;12.45;57.94;97602.69;5051930;28;20866;-64
2023/12/23 11:17:58;;;;;;;4.00;1.50;;;;;;;12.71;56.61;97597.97;5075487;28;20032;-65
2023/12/23 11:20:34;;;;;;;3.97;1.02;;;;;;;13.08;53.08;97595.16;5073427;28;20867;-63
2023/12/23 11:23:00;;;;;;;1.70;0.50;;;;;;;13.40;51.91;97589.69;5073666;28;20060;-64
2023/12/23 11:25:39;;;;;;;2.70;0.80;;;;;;;13.39;53.22;97582.84;5054360;28;21091;-64
2023/12/23 11:28:12;;;;;;;3.85;0.95;;;;;;;13.32;55.33;97574.94;5056650;28;20938;-63
2023/12/23 11:30:52;;;;;;;3.83;1.10;;;;;;;13.36;54.36;97575.38;5074644;28;20027;-64
2023/12/23 11:33:21;;;;;;;1.75;0.60;;;;;;;13.39;53.25;97560.13;5059760;28;20055;-63
2023/12/23 11:35:51;;;;;;;2.95;0.80;;;;;;;13.49;53.18;97557.22;5069565;27;20035;-64
2023/12/23 11:38:16;;;;;;;2.53;0.95;;;;;;;13.49;53.59;97559.00;5051850;28;20760;-64
2023/12/23 11:40:44;;;;;;;4.82;1.27;;;;;;;13.72;51.61;97554.34;5071054;28;20046;-65
2023/12/23 11:43:10;;;;;;;3.25;1.00;;;;;;;13.82;53.13;97554.03;5075486;28;20069;-64
2023/12/23 11:45:39;;;;;;;3.00;0.70;;;;;;;13.69;54.67;97553.94;5074277;27;20149;-63
2023/12/23 11:48:09;;;;;;;1.50;0.40;;;;;;;13.59;53.50;97543.81;5077171;28;20534;-65
2023/12/23 11:50:35;;;;;;;1.95;0.55;;;;;;;13.37;53.06;97515.13;5072976;28;20069;-64
2023/12/23 11:53:14;;;;;;;1.52;0.40;;;;;;;13.55;54.10;97546.00;5075647;27;20445;-64
2023/12/23 11:58:58;;;;;;;3.80;0.80;;;;;;;13.42;54.20;97520.59;5074663;28;20674;-65
2023/12/23 12:05:19;;;;;;;2.03;0.52;;;;;;;13.71;52.51;97533.66;5046441;28;20047;-64
2023/12/23 12:08:37;;;;;;;1.80;0.50;;;;;;;13.70;54.69;97522.41;5066376;28;20112;-64
2023/12/23 12:11:46;;;;;;;2.65;0.80;;;;;;;13.70;56.15;97513.75;4986186;28;20133;-65
2023/12/23 12:21:33;;;;;;;2.78;0.60;;;;;;;13.87;54.87;97512.44;4793382;29;20045;-63
2023/12/23 12:24:29;;;;;;;3.45;1.00;;;;;;;14.09;51.49;97499.28;4829993;29;20057;-65
2023/12/23 12:27:06;;;;;;;2.15;0.70;;;;;;;14.19;51.30;97492.72;4926094;28;20085;-65
2023/12/23 12:29:44;;;;;;;2.08;0.45;;;;;;;14.76;46.99;97505.59;4960741;28;20086;-65
2023/12/23 12:32:37;;;;;;;1.38;0.45;;;;;;;15.38;45.02;97490.53;4977898;28;20488;-64
2023/12/23 12:49:49;;;;;;;5.28;1.25;;;;;;;16.21;39.33;97486.53;4746793;29;20059;-65
2023/12/23 12:52:17;;;;;;;6.30;2.30;;;;;;;16.52;38.14;97491.03;4732700;30;20047;-64
2023/12/23 12:54:42;;;;;;;2.97;0.80;;;;;;;16.66;36.85;97479.44;4736855;29;20090;-66
2023/12/23 12:57:08;;;;;;;2.47;0.63;;;;;;;16.63;36.97;97484.31;4763098;29;20046;-66
2023/12/23 12:59:36;;;;;;;2.75;0.55;;;;;;;16.85;35.60;97497.94;4763846;29;20165;-67
2023/12/23 13:02:08;;;;;;;1.60;0.50;;;;;;;17.10;33.67;97480.41;4777910;29;20050;-68
2023/12/23 13:04:34;;;;;;;1.20;0.40;;;;;;;16.82;36.79;97486.00;4780084;29;20050;-69
2023/12/23 13:07:01;;;;;;;1.60;0.47;;;;;;;16.66;37.60;97491.75;4778038;29;20071;-68
2023/12/23 13:09:27;;;;;;;2.53;0.70;;;;;;;16.39;39.65;97491.91;4771648;29;20054;-68
2023/12/23 13:11:52;;;;;;;2.40;0.50;;;;;;;16.37;39.48;97493.13;4773286;29;20389;-68
2023/12/23 13:14:18;;;;;;;3.00;0.50;;;;;;;16.23;40.33;97487.16;4774662;29;20057;-68
2023/12/23 13:16:48;;;;;;;1.90;0.60;;;;;;;15.87;45.17;97454.41;4804454;29;20046;-67
2023/12/23 13:19:13;;;;;;;1.80;0.60;;;;;;;15.70;44.34;97494.13;5005393;28;20044;-69
2023/12/23 13:21:39;;;;;;;2.13;0.50;;;;;;;15.41;43.50;97456.09;5063690;28;20399;-67
2023/12/23 13:24:04;;;;;;;3.25;0.60;;;;;;;15.66;42.20;97486.84;5067237;28;20035;-69
2023/12/23 13:26:32;;;;;;;1.83;0.40;;;;;;;15.65;40.89;97490.50;5070379;28;20032;-68
2023/12/23 13:28:59;;;;;;;1.92;0.60;;;;;;;16.05;38.87;97486.00;5074990;28;20211;-69
2023/12/23 13:31:24;;;;;;;3.55;0.60;;;;;;;16.49;37.03;97476.50;5069717;28;20039;-69
2023/12/23 13:33:52;;;;;;;0.82;0.32;;;;;;;16.72;34.75;97485.69;5057951;28;20036;-67
2023/12/23 13:36:23;;;;;;;1.15;0.30;;;;;;;17.02;33.57;97446.50;5057577;28;20020;-68
2023/12/23 13:38:48;;;;;;;0.90;0.30;;;;;;;17.63;31.03;97475.69;5080401;28;20088;-68